sensor_id;sensor_type;location;lat;lon;timestamp;temperature;humidity
59301;DHT22;45073;52.740;6.784;2023-07-08T00:00:54;20.10;85.60
59301;DHT22;45073;52.740;6.784;2023-07-08T00:03:20;20.00;85.90
59301;DHT22;45073;52.740;6.784;2023-07-08T00:05:47;20.00;86.10
59301;DHT22;45073;52.740;6.784;2023-07-08T00:08:14;20.00;86.40
59301;DHT22;45073;52.740;6.784;2023-07-08T00:10:40;20.00;87.00
59301;DHT22;45073;52.740;6.784;2023-07-08T00:13:05;19.90;87.50
59301;DHT22;45073;52.740;6.784;2023-07-08T00:15:32;19.90;87.80
59301;DHT22;45073;52.740;6.784;2023-07-08T00:17:59;19.90;88.00
59301;DHT22;45073;52.740;6.784;2023-07-08T00:20:36;19.80;88.30
59301;DHT22;45073;52.740;6.784;2023-07-08T00:23:02;19.80;88.60
59301;DHT22;45073;52.740;6.784;2023-07-08T00:25:29;19.80;89.10
59301;DHT22;45073;52.740;6.784;2023-07-08T00:27:54;19.70;89.70
59301;DHT22;45073;52.740;6.784;2023-07-08T00:30:24;19.70;89.90
59301;DHT22;45073;52.740;6.784;2023-07-08T00:32:50;19.70;89.90
59301;DHT22;45073;52.740;6.784;2023-07-08T00:35:43;19.60;90.10
59301;DHT22;45073;52.740;6.784;2023-07-08T00:38:28;19.60;90.10
59301;DHT22;45073;52.740;6.784;2023-07-08T00:43:53;19.50;90.70
59301;DHT22;45073;52.740;6.784;2023-07-08T00:51:33;19.40;91.50
59301;DHT22;45073;52.740;6.784;2023-07-08T00:53:59;19.40;91.70
59301;DHT22;45073;52.740;6.784;2023-07-08T00:56:38;19.40;91.70
59301;DHT22;45073;52.740;6.784;2023-07-08T00:59:09;19.40;91.70
59301;DHT22;45073;52.740;6.784;2023-07-08T01:01:39;19.30;92.00
59301;DHT22;45073;52.740;6.784;2023-07-08T01:04:22;19.30;92.30
59301;DHT22;45073;52.740;6.784;2023-07-08T01:06:51;19.30;92.30
59301;DHT22;45073;52.740;6.784;2023-07-08T01:09:27;19.30;92.70
59301;DHT22;45073;52.740;6.784;2023-07-08T01:11:54;19.30;92.90
59301;DHT22;45073;52.740;6.784;2023-07-08T01:14:23;19.20;92.90
59301;DHT22;45073;52.740;6.784;2023-07-08T01:16:51;19.20;93.30
59301;DHT22;45073;52.740;6.784;2023-07-08T01:19:19;19.20;93.40
59301;DHT22;45073;52.740;6.784;2023-07-08T01:22:06;19.10;93.60
59301;DHT22;45073;52.740;6.784;2023-07-08T01:24:35;19.10;93.40
59301;DHT22;45073;52.740;6.784;2023-07-08T01:27:04;19.10;94.00
59301;DHT22;45073;52.740;6.784;2023-07-08T01:29:30;19.00;94.30
59301;DHT22;45073;52.740;6.784;2023-07-08T01:31:58;19.00;94.40
59301;DHT22;45073;52.740;6.784;2023-07-08T01:34:24;19.00;94.60
59301;DHT22;45073;52.740;6.784;2023-07-08T01:36:53;18.90;94.30
59301;DHT22;45073;52.740;6.784;2023-07-08T01:39:21;18.90;95.10
59301;DHT22;45073;52.740;6.784;2023-07-08T01:41:47;18.90;95.10
59301;DHT22;45073;52.740;6.784;2023-07-08T01:44:29;18.90;95.00
59301;DHT22;45073;52.740;6.784;2023-07-08T01:46:58;18.90;95.20
59301;DHT22;45073;52.740;6.784;2023-07-08T01:49:24;18.90;95.60
59301;DHT22;45073;52.740;6.784;2023-07-08T01:51:50;18.80;95.60
59301;DHT22;45073;52.740;6.784;2023-07-08T01:54:16;18.80;95.70
59301;DHT22;45073;52.740;6.784;2023-07-08T01:56:42;18.80;95.90
59301;DHT22;45073;52.740;6.784;2023-07-08T01:59:07;18.80;95.90
59301;DHT22;45073;52.740;6.784;2023-07-08T02:01:33;18.80;96.30
59301;DHT22;45073;52.740;6.784;2023-07-08T02:03:58;18.80;96.40
59301;DHT22;45073;52.740;6.784;2023-07-08T02:06:24;18.80;96.40
59301;DHT22;45073;52.740;6.784;2023-07-08T02:08:50;18.70;96.80
59301;DHT22;45073;52.740;6.784;2023-07-08T02:11:17;18.70;96.80
59301;DHT22;45073;52.740;6.784;2023-07-08T02:13:42;18.70;96.90
59301;DHT22;45073;52.740;6.784;2023-07-08T02:16:08;18.70;97.10
59301;DHT22;45073;52.740;6.784;2023-07-08T02:18:33;18.70;97.50
59301;DHT22;45073;52.740;6.784;2023-07-08T02:20:59;18.60;97.40
59301;DHT22;45073;52.740;6.784;2023-07-08T02:23:25;18.60;97.60
59301;DHT22;45073;52.740;6.784;2023-07-08T02:25:52;18.60;97.60
59301;DHT22;45073;52.740;6.784;2023-07-08T02:28:18;18.60;97.90
59301;DHT22;45073;52.740;6.784;2023-07-08T02:30:43;18.60;97.90
59301;DHT22;45073;52.740;6.784;2023-07-08T02:33:11;18.50;98.30
59301;DHT22;45073;52.740;6.784;2023-07-08T02:35:37;18.50;98.40
59301;DHT22;45073;52.740;6.784;2023-07-08T02:38:02;18.50;98.50
59301;DHT22;45073;52.740;6.784;2023-07-08T02:40:28;18.50;98.80
59301;DHT22;45073;52.740;6.784;2023-07-08T02:42:54;18.50;98.70
59301;DHT22;45073;52.740;6.784;2023-07-08T02:45:21;18.40;98.90
59301;DHT22;45073;52.740;6.784;2023-07-08T02:47:46;18.40;98.60
59301;DHT22;45073;52.740;6.784;2023-07-08T02:50:12;18.30;99.70
59301;DHT22;45073;52.740;6.784;2023-07-08T02:52:38;18.40;99.50
59301;DHT22;45073;52.740;6.784;2023-07-08T02:55:05;18.40;99.70
59301;DHT22;45073;52.740;6.784;2023-07-08T02:57:31;18.40;99.90
59301;DHT22;45073;52.740;6.784;2023-07-08T02:59:56;18.30;99.90
59301;DHT22;45073;52.740;6.784;2023-07-08T03:02:22;18.30;99.70
59301;DHT22;45073;52.740;6.784;2023-07-08T03:04:48;18.30;99.80
59301;DHT22;45073;52.740;6.784;2023-07-08T03:07:15;18.30;99.90
59301;DHT22;45073;52.740;6.784;2023-07-08T03:09:41;18.30;99.90
59301;DHT22;45073;52.740;6.784;2023-07-08T03:12:08;18.30;99.90
59301;DHT22;45073;52.740;6.784;2023-07-08T03:14:34;18.30;99.90
59301;DHT22;45073;52.740;6.784;2023-07-08T03:17:00;18.20;99.90
59301;DHT22;45073;52.740;6.784;2023-07-08T03:19:26;18.20;99.90
59301;DHT22;45073;52.740;6.784;2023-07-08T03:21:52;18.20;99.90
59301;DHT22;45073;52.740;6.784;2023-07-08T03:24:17;18.20;99.90
59301;DHT22;45073;52.740;6.784;2023-07-08T03:26:44;18.10;99.90
59301;DHT22;45073;52.740;6.784;2023-07-08T03:29:18;18.10;99.90
59301;DHT22;45073;52.740;6.784;2023-07-08T03:31:44;18.10;99.90
59301;DHT22;45073;52.740;6.784;2023-07-08T03:34:11;18.10;99.90
59301;DHT22;45073;52.740;6.784;2023-07-08T03:36:45;18.10;99.90
59301;DHT22;45073;52.740;6.784;2023-07-08T03:39:18;18.10;99.90
59301;DHT22;45073;52.740;6.784;2023-07-08T03:41:44;18.10;99.90
59301;DHT22;45073;52.740;6.784;2023-07-08T03:44:10;18.00;99.90
59301;DHT22;45073;52.740;6.784;2023-07-08T03:46:36;18.00;99.90
59301;DHT22;45073;52.740;6.784;2023-07-08T03:49:01;18.10;99.90
59301;DHT22;45073;52.740;6.784;2023-07-08T03:51:30;18.10;99.90
59301;DHT22;45073;52.740;6.784;2023-07-08T03:53:57;18.00;99.90
59301;DHT22;45073;52.740;6.784;2023-07-08T03:56:23;18.10;99.90
59301;DHT22;45073;52.740;6.784;2023-07-08T03:58:49;18.00;99.90
59301;DHT22;45073;52.740;6.784;2023-07-08T04:01:23;18.00;99.90
59301;DHT22;45073;52.740;6.784;2023-07-08T04:03:52;18.10;99.90
59301;DHT22;45073;52.740;6.784;2023-07-08T04:06:18;18.10;99.90
59301;DHT22;45073;52.740;6.784;2023-07-08T04:08:44;18.00;99.90
59301;DHT22;45073;52.740;6.784;2023-07-08T04:11:13;18.00;99.90
59301;DHT22;45073;52.740;6.784;2023-07-08T04:13:38;18.00;99.90
59301;DHT22;45073;52.740;6.784;2023-07-08T04:16:05;17.90;99.90
59301;DHT22;45073;52.740;6.784;2023-07-08T04:18:31;18.00;99.90
59301;DHT22;45073;52.740;6.784;2023-07-08T04:20:57;18.00;99.90
59301;DHT22;45073;52.740;6.784;2023-07-08T04:23:23;18.00;99.90
59301;DHT22;45073;52.740;6.784;2023-07-08T04:25:50;18.00;99.90
59301;DHT22;45073;52.740;6.784;2023-07-08T04:28:17;18.00;99.90
59301;DHT22;45073;52.740;6.784;2023-07-08T04:30:43;18.00;99.90
59301;DHT22;45073;52.740;6.784;2023-07-08T04:33:11;18.00;99.90
59301;DHT22;45073;52.740;6.784;2023-07-08T04:35:38;18.00;99.90
59301;DHT22;45073;52.740;6.784;2023-07-08T04:38:24;18.00;99.90
59301;DHT22;45073;52.740;6.784;2023-07-08T04:40:50;18.00;99.90
59301;DHT22;45073;52.740;6.784;2023-07-08T04:43:17;18.00;99.90
59301;DHT22;45073;52.740;6.784;2023-07-08T04:45:46;18.10;99.90
59301;DHT22;45073;52.740;6.784;2023-07-08T04:48:15;18.00;99.90
59301;DHT22;45073;52.740;6.784;2023-07-08T04:50:45;18.10;99.90
59301;DHT22;45073;52.740;6.784;2023-07-08T04:53:11;18.10;99.90
59301;DHT22;45073;52.740;6.784;2023-07-08T04:55:43;18.10;99.90
59301;DHT22;45073;52.740;6.784;2023-07-08T04:58:10;18.10;99.90
59301;DHT22;45073;52.740;6.784;2023-07-08T05:00:36;18.10;99.90
59301;DHT22;45073;52.740;6.784;2023-07-08T05:03:01;18.20;99.90
59301;DHT22;45073;52.740;6.784;2023-07-08T05:05:27;18.20;99.90
59301;DHT22;45073;52.740;6.784;2023-07-08T05:07:53;18.30;99.90
59301;DHT22;45073;52.740;6.784;2023-07-08T05:10:19;18.30;99.90
59301;DHT22;45073;52.740;6.784;2023-07-08T05:12:45;18.30;99.90
59301;DHT22;45073;52.740;6.784;2023-07-08T05:15:11;18.30;99.90
59301;DHT22;45073;52.740;6.784;2023-07-08T05:17:38;18.40;99.90
59301;DHT22;45073;52.740;6.784;2023-07-08T05:20:08;18.40;99.90
59301;DHT22;45073;52.740;6.784;2023-07-08T05:22:35;18.40;99.90
59301;DHT22;45073;52.740;6.784;2023-07-08T05:25:01;18.50;99.90
59301;DHT22;45073;52.740;6.784;2023-07-08T05:27:27;18.50;99.90
59301;DHT22;45073;52.740;6.784;2023-07-08T05:29:53;18.60;99.90
59301;DHT22;45073;52.740;6.784;2023-07-08T05:32:19;18.60;99.90
59301;DHT22;45073;52.740;6.784;2023-07-08T05:34:44;18.60;99.90
59301;DHT22;45073;52.740;6.784;2023-07-08T05:37:11;18.70;99.90
59301;DHT22;45073;52.740;6.784;2023-07-08T05:39:37;18.70;99.90
59301;DHT22;45073;52.740;6.784;2023-07-08T05:42:03;18.80;99.90
59301;DHT22;45073;52.740;6.784;2023-07-08T05:44:29;18.80;99.90
59301;DHT22;45073;52.740;6.784;2023-07-08T05:46:54;18.90;99.90
59301;DHT22;45073;52.740;6.784;2023-07-08T05:49:20;18.90;99.90
59301;DHT22;45073;52.740;6.784;2023-07-08T05:51:46;19.00;99.90
59301;DHT22;45073;52.740;6.784;2023-07-08T05:54:12;19.00;99.90
59301;DHT22;45073;52.740;6.784;2023-07-08T05:56:37;19.10;99.90
59301;DHT22;45073;52.740;6.784;2023-07-08T05:59:03;19.10;99.90
59301;DHT22;45073;52.740;6.784;2023-07-08T06:01:30;19.20;99.90
59301;DHT22;45073;52.740;6.784;2023-07-08T06:03:56;19.30;99.90
59301;DHT22;45073;52.740;6.784;2023-07-08T06:06:25;19.40;99.90
59301;DHT22;45073;52.740;6.784;2023-07-08T06:08:52;19.40;99.90
59301;DHT22;45073;52.740;6.784;2023-07-08T06:11:17;19.50;99.90
59301;DHT22;45073;52.740;6.784;2023-07-08T06:13:43;19.50;99.90
59301;DHT22;45073;52.740;6.784;2023-07-08T06:16:09;19.60;99.90
59301;DHT22;45073;52.740;6.784;2023-07-08T06:18:34;19.70;99.90
59301;DHT22;45073;52.740;6.784;2023-07-08T06:21:00;19.80;99.90
59301;DHT22;45073;52.740;6.784;2023-07-08T06:23:27;19.90;99.90
59301;DHT22;45073;52.740;6.784;2023-07-08T06:25:53;19.90;99.90
59301;DHT22;45073;52.740;6.784;2023-07-08T06:28:19;20.00;99.90
59301;DHT22;45073;52.740;6.784;2023-07-08T06:30:45;20.10;99.90
59301;DHT22;45073;52.740;6.784;2023-07-08T06:33:11;20.20;99.90
59301;DHT22;45073;52.740;6.784;2023-07-08T06:35:38;20.20;99.90
59301;DHT22;45073;52.740;6.784;2023-07-08T06:38:04;20.30;99.90
59301;DHT22;45073;52.740;6.784;2023-07-08T06:40:30;20.40;99.90
59301;DHT22;45073;52.740;6.784;2023-07-08T06:42:56;20.40;99.90
59301;DHT22;45073;52.740;6.784;2023-07-08T06:45:21;20.50;99.90
59301;DHT22;45073;52.740;6.784;2023-07-08T06:47:47;20.60;99.00
59301;DHT22;45073;52.740;6.784;2023-07-08T06:50:13;20.60;98.70
59301;DHT22;45073;52.740;6.784;2023-07-08T06:52:38;20.70;98.70
59301;DHT22;45073;52.740;6.784;2023-07-08T06:55:07;20.80;99.00
59301;DHT22;45073;52.740;6.784;2023-07-08T06:57:33;20.80;98.10
59301;DHT22;45073;52.740;6.784;2023-07-08T06:59:59;20.90;98.10
59301;DHT22;45073;52.740;6.784;2023-07-08T07:02:25;21.00;98.80
59301;DHT22;45073;52.740;6.784;2023-07-08T07:04:51;21.10;98.70
59301;DHT22;45073;52.740;6.784;2023-07-08T07:07:17;21.20;99.20
59301;DHT22;45073;52.740;6.784;2023-07-08T07:09:42;21.30;98.20
59301;DHT22;45073;52.740;6.784;2023-07-08T07:12:08;21.40;98.00
59301;DHT22;45073;52.740;6.784;2023-07-08T07:14:34;21.50;97.10
59301;DHT22;45073;52.740;6.784;2023-07-08T07:17:00;21.50;95.80
59301;DHT22;45073;52.740;6.784;2023-07-08T07:19:25;21.60;95.10
59301;DHT22;45073;52.740;6.784;2023-07-08T07:21:51;21.70;95.00
59301;DHT22;45073;52.740;6.784;2023-07-08T07:24:17;21.70;94.40
59301;DHT22;45073;52.740;6.784;2023-07-08T07:26:43;21.80;93.40
59301;DHT22;45073;52.740;6.784;2023-07-08T07:29:09;21.90;92.90
59301;DHT22;45073;52.740;6.784;2023-07-08T07:31:34;21.90;93.10
59301;DHT22;45073;52.740;6.784;2023-07-08T07:34:00;22.00;92.70
59301;DHT22;45073;52.740;6.784;2023-07-08T07:36:27;22.10;91.60
59301;DHT22;45073;52.740;6.784;2023-07-08T07:38:54;22.20;91.20
59301;DHT22;45073;52.740;6.784;2023-07-08T07:41:20;22.20;91.40
59301;DHT22;45073;52.740;6.784;2023-07-08T07:43:46;22.30;91.00
59301;DHT22;45073;52.740;6.784;2023-07-08T07:46:12;22.40;90.10
59301;DHT22;45073;52.740;6.784;2023-07-08T07:48:38;22.50;90.20
59301;DHT22;45073;52.740;6.784;2023-07-08T07:51:05;22.50;90.60
59301;DHT22;45073;52.740;6.784;2023-07-08T07:53:31;22.60;90.60
59301;DHT22;45073;52.740;6.784;2023-07-08T07:55:58;22.70;90.40
59301;DHT22;45073;52.740;6.784;2023-07-08T07:58:24;22.70;90.50
59301;DHT22;45073;52.740;6.784;2023-07-08T08:00:49;22.80;89.20
59301;DHT22;45073;52.740;6.784;2023-07-08T08:03:16;22.80;87.90
59301;DHT22;45073;52.740;6.784;2023-07-08T08:05:42;22.90;87.70
59301;DHT22;45073;52.740;6.784;2023-07-08T08:08:08;23.00;88.20
59301;DHT22;45073;52.740;6.784;2023-07-08T08:10:35;23.00;88.00
59301;DHT22;45073;52.740;6.784;2023-07-08T08:13:01;23.10;87.00
59301;DHT22;45073;52.740;6.784;2023-07-08T08:15:28;23.00;87.00
59301;DHT22;45073;52.740;6.784;2023-07-08T08:17:53;23.10;86.80
59301;DHT22;45073;52.740;6.784;2023-07-08T08:20:20;23.10;85.60
59301;DHT22;45073;52.740;6.784;2023-07-08T08:22:46;23.10;85.80
59301;DHT22;45073;52.740;6.784;2023-07-08T08:25:13;23.20;86.30
59301;DHT22;45073;52.740;6.784;2023-07-08T08:27:39;23.30;87.60
59301;DHT22;45073;52.740;6.784;2023-07-08T08:30:05;23.30;86.90
59301;DHT22;45073;52.740;6.784;2023-07-08T08:32:31;23.50;85.70
59301;DHT22;45073;52.740;6.784;2023-07-08T08:34:57;23.60;87.30
59301;DHT22;45073;52.740;6.784;2023-07-08T08:37:23;23.60;88.50
59301;DHT22;45073;52.740;6.784;2023-07-08T08:39:49;23.70;87.50
59301;DHT22;45073;52.740;6.784;2023-07-08T08:42:34;23.80;85.20
59301;DHT22;45073;52.740;6.784;2023-07-08T08:45:02;23.90;84.90
59301;DHT22;45073;52.740;6.784;2023-07-08T08:47:36;23.90;84.20
59301;DHT22;45073;52.740;6.784;2023-07-08T08:50:33;24.00;83.40
59301;DHT22;45073;52.740;6.784;2023-07-08T08:53:03;24.10;82.60
59301;DHT22;45073;52.740;6.784;2023-07-08T08:55:29;24.10;83.50
59301;DHT22;45073;52.740;6.784;2023-07-08T09:00:54;24.30;83.00
59301;DHT22;45073;52.740;6.784;2023-07-08T09:03:57;24.50;81.30
59301;DHT22;45073;52.740;6.784;2023-07-08T09:06:32;24.50;80.60
59301;DHT22;45073;52.740;6.784;2023-07-08T09:09:05;24.60;78.50
59301;DHT22;45073;52.740;6.784;2023-07-08T09:12:03;24.70;78.80
59301;DHT22;45073;52.740;6.784;2023-07-08T09:14:31;24.80;81.90
59301;DHT22;45073;52.740;6.784;2023-07-08T09:17:20;24.90;81.70
59301;DHT22;45073;52.740;6.784;2023-07-08T09:22:41;25.00;80.30
59301;DHT22;45073;52.740;6.784;2023-07-08T09:27:54;25.20;79.80
59301;DHT22;45073;52.740;6.784;2023-07-08T09:30:22;25.20;79.40
59301;DHT22;45073;52.740;6.784;2023-07-08T09:32:49;25.30;80.30
59301;DHT22;45073;52.740;6.784;2023-07-08T09:35:24;25.40;79.70
59301;DHT22;45073;52.740;6.784;2023-07-08T09:37:50;25.50;80.30
59301;DHT22;45073;52.740;6.784;2023-07-08T09:42:42;25.60;78.50
59301;DHT22;45073;52.740;6.784;2023-07-08T09:45:14;25.70;78.50
59301;DHT22;45073;52.740;6.784;2023-07-08T09:47:40;25.80;76.70
59301;DHT22;45073;52.740;6.784;2023-07-08T09:52:44;26.00;76.80
59301;DHT22;45073;52.740;6.784;2023-07-08T09:55:12;26.10;76.50
59301;DHT22;45073;52.740;6.784;2023-07-08T09:57:39;26.20;75.40
59301;DHT22;45073;52.740;6.784;2023-07-08T10:00:12;26.30;75.30
59301;DHT22;45073;52.740;6.784;2023-07-08T10:02:57;26.40;73.80
59301;DHT22;45073;52.740;6.784;2023-07-08T10:05:35;26.40;75.40
59301;DHT22;45073;52.740;6.784;2023-07-08T10:08:14;26.50;74.80
59301;DHT22;45073;52.740;6.784;2023-07-08T10:10:40;26.60;74.70
59301;DHT22;45073;52.740;6.784;2023-07-08T10:13:43;26.70;75.30
59301;DHT22;45073;52.740;6.784;2023-07-08T10:16:14;26.80;73.90
59301;DHT22;45073;52.740;6.784;2023-07-08T10:18:40;26.90;71.70
59301;DHT22;45073;52.740;6.784;2023-07-08T10:21:34;27.00;70.70
59301;DHT22;45073;52.740;6.784;2023-07-08T10:26:46;27.20;70.90
59301;DHT22;45073;52.740;6.784;2023-07-08T10:29:24;27.30;70.40
59301;DHT22;45073;52.740;6.784;2023-07-08T10:34:48;27.50;68.90
59301;DHT22;45073;52.740;6.784;2023-07-08T10:42:57;27.70;68.90
59301;DHT22;45073;52.740;6.784;2023-07-08T10:45:34;27.90;69.40
59301;DHT22;45073;52.740;6.784;2023-07-08T10:51:23;28.10;67.00
59301;DHT22;45073;52.740;6.784;2023-07-08T10:56:59;28.30;66.60
59301;DHT22;45073;52.740;6.784;2023-07-08T10:59:51;28.40;66.50
59301;DHT22;45073;52.740;6.784;2023-07-08T11:07:39;28.70;64.40
59301;DHT22;45073;52.740;6.784;2023-07-08T11:10:16;28.80;64.00
59301;DHT22;45073;52.740;6.784;2023-07-08T11:12:49;28.90;64.60
59301;DHT22;45073;52.740;6.784;2023-07-08T11:15:22;29.00;63.70
59301;DHT22;45073;52.740;6.784;2023-07-08T11:18:11;29.10;62.80
59301;DHT22;45073;52.740;6.784;2023-07-08T11:20:48;29.20;63.00
59301;DHT22;45073;52.740;6.784;2023-07-08T11:23:26;29.30;61.70
59301;DHT22;45073;52.740;6.784;2023-07-08T11:29:02;29.50;63.20
59301;DHT22;45073;52.740;6.784;2023-07-08T11:31:31;29.60;62.30
59301;DHT22;45073;52.740;6.784;2023-07-08T11:33:58;29.70;61.60
59301;DHT22;45073;52.740;6.784;2023-07-08T11:36:25;29.80;61.40
59301;DHT22;45073;52.740;6.784;2023-07-08T11:38:56;29.90;61.90
59301;DHT22;45073;52.740;6.784;2023-07-08T11:41:27;30.00;60.50
59301;DHT22;45073;52.740;6.784;2023-07-08T11:43:58;30.10;62.50
59301;DHT22;45073;52.740;6.784;2023-07-08T11:46:29;30.20;60.50
59301;DHT22;45073;52.740;6.784;2023-07-08T11:49:00;30.20;61.30
59301;DHT22;45073;52.740;6.784;2023-07-08T11:51:29;30.30;60.80
59301;DHT22;45073;52.740;6.784;2023-07-08T11:56:50;30.60;60.70
59301;DHT22;45073;52.740;6.784;2023-07-08T11:59:24;30.70;59.20
59301;DHT22;45073;52.740;6.784;2023-07-08T12:04:25;30.90;60.30
59301;DHT22;45073;52.740;6.784;2023-07-08T12:07:17;31.00;60.00
59301;DHT22;45073;52.740;6.784;2023-07-08T12:10:08;31.10;58.40
59301;DHT22;45073;52.740;6.784;2023-07-08T12:12:39;31.20;59.40
59301;DHT22;45073;52.740;6.784;2023-07-08T12:15:17;31.30;58.80
59301;DHT22;45073;52.740;6.784;2023-07-08T12:17:44;31.40;59.40
59301;DHT22;45073;52.740;6.784;2023-07-08T12:20:34;31.50;59.90
59301;DHT22;45073;52.740;6.784;2023-07-08T12:23:00;31.70;59.80
59301;DHT22;45073;52.740;6.784;2023-07-08T12:25:31;31.80;58.20
59301;DHT22;45073;52.740;6.784;2023-07-08T12:27:57;31.80;57.10
59301;DHT22;45073;52.740;6.784;2023-07-08T12:30:23;31.90;56.00
59301;DHT22;45073;52.740;6.784;2023-07-08T12:32:51;31.90;55.90
59301;DHT22;45073;52.740;6.784;2023-07-08T12:35:26;32.00;56.40
59301;DHT22;45073;52.740;6.784;2023-07-08T12:37:54;32.10;56.00
59301;DHT22;45073;52.740;6.784;2023-07-08T12:40:22;32.10;54.90
59301;DHT22;45073;52.740;6.784;2023-07-08T12:42:48;32.20;53.70
59301;DHT22;45073;52.740;6.784;2023-07-08T12:45:16;32.30;53.30
59301;DHT22;45073;52.740;6.784;2023-07-08T12:47:43;32.40;53.80
59301;DHT22;45073;52.740;6.784;2023-07-08T12:50:10;32.50;54.70
59301;DHT22;45073;52.740;6.784;2023-07-08T12:52:36;32.50;52.00
59301;DHT22;45073;52.740;6.784;2023-07-08T12:55:01;32.60;52.00
59301;DHT22;45073;52.740;6.784;2023-07-08T12:57:27;32.70;52.20
59301;DHT22;45073;52.740;6.784;2023-07-08T12:59:53;32.80;51.80
59301;DHT22;45073;52.740;6.784;2023-07-08T13:02:21;32.80;50.60
59301;DHT22;45073;52.740;6.784;2023-07-08T13:04:53;32.90;53.00
59301;DHT22;45073;52.740;6.784;2023-07-08T13:07:38;33.10;52.10
59301;DHT22;45073;52.740;6.784;2023-07-08T13:10:06;33.20;51.00
59301;DHT22;45073;52.740;6.784;2023-07-08T13:12:35;33.30;51.00
59301;DHT22;45073;52.740;6.784;2023-07-08T13:15:08;33.40;50.50
59301;DHT22;45073;52.740;6.784;2023-07-08T13:17:36;33.50;50.40
59301;DHT22;45073;52.740;6.784;2023-07-08T13:20:04;33.50;49.70
59301;DHT22;45073;52.740;6.784;2023-07-08T13:22:30;33.50;50.20
59301;DHT22;45073;52.740;6.784;2023-07-08T13:25:01;33.60;49.50
59301;DHT22;45073;52.740;6.784;2023-07-08T13:27:27;33.70;50.10
59301;DHT22;45073;52.740;6.784;2023-07-08T13:29:54;33.80;49.10
59301;DHT22;45073;52.740;6.784;2023-07-08T13:32:29;33.90;49.30
59301;DHT22;45073;52.740;6.784;2023-07-08T13:34:56;34.00;49.80
59301;DHT22;45073;52.740;6.784;2023-07-08T13:37:21;34.10;49.40
59301;DHT22;45073;52.740;6.784;2023-07-08T13:39:53;34.10;47.40
59301;DHT22;45073;52.740;6.784;2023-07-08T13:42:19;34.10;47.00
59301;DHT22;45073;52.740;6.784;2023-07-08T13:44:46;34.20;48.20
59301;DHT22;45073;52.740;6.784;2023-07-08T13:47:24;34.20;48.30
59301;DHT22;45073;52.740;6.784;2023-07-08T13:49:58;34.30;48.80
59301;DHT22;45073;52.740;6.784;2023-07-08T13:52:25;34.30;49.10
59301;DHT22;45073;52.740;6.784;2023-07-08T13:54:53;34.50;49.50
59301;DHT22;45073;52.740;6.784;2023-07-08T13:57:27;34.50;49.50
59301;DHT22;45073;52.740;6.784;2023-07-08T13:59:53;34.50;48.40
59301;DHT22;45073;52.740;6.784;2023-07-08T14:02:23;34.50;48.30
59301;DHT22;45073;52.740;6.784;2023-07-08T14:04:50;34.60;47.60
59301;DHT22;45073;52.740;6.784;2023-07-08T14:07:18;34.50;46.20
59301;DHT22;45073;52.740;6.784;2023-07-08T14:09:44;34.50;46.10
59301;DHT22;45073;52.740;6.784;2023-07-08T14:12:10;34.60;46.30
59301;DHT22;45073;52.740;6.784;2023-07-08T14:14:36;34.70;46.70
59301;DHT22;45073;52.740;6.784;2023-07-08T14:17:02;34.80;47.20
59301;DHT22;45073;52.740;6.784;2023-07-08T14:19:30;34.70;44.60
59301;DHT22;45073;52.740;6.784;2023-07-08T14:22:23;34.60;44.00
59301;DHT22;45073;52.740;6.784;2023-07-08T14:24:47;34.50;44.10
59301;DHT22;45073;52.740;6.784;2023-07-08T14:27:13;34.50;45.10
59301;DHT22;45073;52.740;6.784;2023-07-08T14:29:42;34.60;45.60
59301;DHT22;45073;52.740;6.784;2023-07-08T14:32:24;34.70;46.10
59301;DHT22;45073;52.740;6.784;2023-07-08T14:34:57;34.80;46.20
59301;DHT22;45073;52.740;6.784;2023-07-08T14:37:24;34.80;44.40
59301;DHT22;45073;52.740;6.784;2023-07-08T14:39:51;34.70;42.90
59301;DHT22;45073;52.740;6.784;2023-07-08T14:42:18;34.60;43.30
59301;DHT22;45073;52.740;6.784;2023-07-08T14:44:46;34.60;43.80
59301;DHT22;45073;52.740;6.784;2023-07-08T14:47:16;34.60;43.90
59301;DHT22;45073;52.740;6.784;2023-07-08T14:49:42;34.60;43.80
59301;DHT22;45073;52.740;6.784;2023-07-08T14:52:08;34.60;43.20
59301;DHT22;45073;52.740;6.784;2023-07-08T14:54:34;34.70;43.10
59301;DHT22;45073;52.740;6.784;2023-07-08T14:57:01;34.70;42.90
59301;DHT22;45073;52.740;6.784;2023-07-08T14:59:29;34.70;43.50
59301;DHT22;45073;52.740;6.784;2023-07-08T15:01:57;34.70;42.20
59301;DHT22;45073;52.740;6.784;2023-07-08T15:04:24;34.70;43.60
59301;DHT22;45073;52.740;6.784;2023-07-08T15:06:50;34.80;45.30
59301;DHT22;45073;52.740;6.784;2023-07-08T15:09:17;34.80;44.50
59301;DHT22;45073;52.740;6.784;2023-07-08T15:11:44;34.80;44.60
59301;DHT22;45073;52.740;6.784;2023-07-08T15:14:20;34.80;43.40
59301;DHT22;45073;52.740;6.784;2023-07-08T15:16:47;34.80;43.20
59301;DHT22;45073;52.740;6.784;2023-07-08T15:19:13;34.80;42.40
59301;DHT22;45073;52.740;6.784;2023-07-08T15:21:39;34.80;44.00
59301;DHT22;45073;52.740;6.784;2023-07-08T15:24:09;34.80;42.00
59301;DHT22;45073;52.740;6.784;2023-07-08T15:26:37;34.70;41.70
59301;DHT22;45073;52.740;6.784;2023-07-08T15:29:03;34.60;44.00
59301;DHT22;45073;52.740;6.784;2023-07-08T15:31:32;34.60;43.00
59301;DHT22;45073;52.740;6.784;2023-07-08T15:33:58;34.60;42.70
59301;DHT22;45073;52.740;6.784;2023-07-08T15:36:23;34.70;43.00
59301;DHT22;45073;52.740;6.784;2023-07-08T15:38:49;34.70;44.00
59301;DHT22;45073;52.740;6.784;2023-07-08T15:41:21;34.70;43.50
59301;DHT22;45073;52.740;6.784;2023-07-08T15:43:48;34.60;43.10
59301;DHT22;45073;52.740;6.784;2023-07-08T15:46:15;34.50;41.10
59301;DHT22;45073;52.740;6.784;2023-07-08T15:48:41;34.50;41.60
59301;DHT22;45073;52.740;6.784;2023-07-08T15:51:12;34.40;42.10
59301;DHT22;45073;52.740;6.784;2023-07-08T15:53:38;34.40;43.10
59301;DHT22;45073;52.740;6.784;2023-07-08T15:56:04;34.50;43.30
59301;DHT22;45073;52.740;6.784;2023-07-08T15:58:31;34.50;42.50
59301;DHT22;45073;52.740;6.784;2023-07-08T16:00:59;34.50;43.00
59301;DHT22;45073;52.740;6.784;2023-07-08T16:03:28;34.40;42.30
59301;DHT22;45073;52.740;6.784;2023-07-08T16:05:56;34.50;41.60
59301;DHT22;45073;52.740;6.784;2023-07-08T16:08:22;34.40;42.60
59301;DHT22;45073;52.740;6.784;2023-07-08T16:10:51;34.40;42.00
59301;DHT22;45073;52.740;6.784;2023-07-08T16:13:25;34.40;43.40
59301;DHT22;45073;52.740;6.784;2023-07-08T16:15:51;34.30;42.40
59301;DHT22;45073;52.740;6.784;2023-07-08T16:18:17;34.30;43.20
59301;DHT22;45073;52.740;6.784;2023-07-08T16:20:43;34.30;42.50
59301;DHT22;45073;52.740;6.784;2023-07-08T16:23:09;34.30;41.80
59301;DHT22;45073;52.740;6.784;2023-07-08T16:25:38;34.30;42.30
59301;DHT22;45073;52.740;6.784;2023-07-08T16:28:05;34.30;42.40
59301;DHT22;45073;52.740;6.784;2023-07-08T16:30:31;34.30;42.30
59301;DHT22;45073;52.740;6.784;2023-07-08T16:32:57;34.30;42.30